sensor_id;sensor_type;location;lat;lon;timestamp;temperature;humidity
871;DHT22;422;51.280;7.236;2024-03-06T00:02:08;4.00;99.90
871;DHT22;422;51.280;7.236;2024-03-06T00:04:36;4.00;99.90
871;DHT22;422;51.280;7.236;2024-03-06T00:07:03;3.90;99.90
871;DHT22;422;51.280;7.236;2024-03-06T00:09:30;4.00;99.90
871;DHT22;422;51.280;7.236;2024-03-06T00:11:58;4.00;99.90
871;DHT22;422;51.280;7.236;2024-03-06T00:14:27;4.00;99.90
871;DHT22;422;51.280;7.236;2024-03-06T00:16:54;4.00;99.90
871;DHT22;422;51.280;7.236;2024-03-06T00:19:22;3.90;99.90
871;DHT22;422;51.280;7.236;2024-03-06T00:21:49;3.90;99.90
871;DHT22;422;51.280;7.236;2024-03-06T00:24:16;3.90;99.90
871;DHT22;422;51.280;7.236;2024-03-06T00:26:44;3.80;99.90
871;DHT22;422;51.280;7.236;2024-03-06T00:29:13;3.70;99.90
871;DHT22;422;51.280;7.236;2024-03-06T00:31:44;3.70;99.90
871;DHT22;422;51.280;7.236;2024-03-06T00:34:12;3.70;99.90
871;DHT22;422;51.280;7.236;2024-03-06T00:36:41;3.60;99.90
871;DHT22;422;51.280;7.236;2024-03-06T00:39:08;3.60;99.90
871;DHT22;422;51.280;7.236;2024-03-06T00:41:35;3.50;99.90
871;DHT22;422;51.280;7.236;2024-03-06T00:44:03;3.50;99.90
871;DHT22;422;51.280;7.236;2024-03-06T00:46:31;3.50;99.90
871;DHT22;422;51.280;7.236;2024-03-06T00:49:00;3.60;99.90
871;DHT22;422;51.280;7.236;2024-03-06T00:51:27;3.60;99.90
871;DHT22;422;51.280;7.236;2024-03-06T00:53:54;3.50;99.90
871;DHT22;422;51.280;7.236;2024-03-06T00:56:22;3.50;99.90
871;DHT22;422;51.280;7.236;2024-03-06T00:58:49;3.40;99.90
871;DHT22;422;51.280;7.236;2024-03-06T01:01:16;3.50;99.90
871;DHT22;422;51.280;7.236;2024-03-06T01:03:44;3.40;99.90
871;DHT22;422;51.280;7.236;2024-03-06T01:06:13;3.50;99.90
871;DHT22;422;51.280;7.236;2024-03-06T01:08:40;3.50;99.90
871;DHT22;422;51.280;7.236;2024-03-06T01:11:08;3.40;99.90
871;DHT22;422;51.280;7.236;2024-03-06T01:13:37;3.50;99.90
871;DHT22;422;51.280;7.236;2024-03-06T01:16:05;3.50;99.90
871;DHT22;422;51.280;7.236;2024-03-06T01:18:32;3.40;99.90
871;DHT22;422;51.280;7.236;2024-03-06T01:21:00;3.40;99.90
871;DHT22;422;51.280;7.236;2024-03-06T01:23:30;3.40;99.90
871;DHT22;422;51.280;7.236;2024-03-06T01:25:57;3.40;99.90
871;DHT22;422;51.280;7.236;2024-03-06T01:28:24;3.40;99.90
871;DHT22;422;51.280;7.236;2024-03-06T01:30:51;3.30;99.90
871;DHT22;422;51.280;7.236;2024-03-06T01:33:19;3.30;99.90
871;DHT22;422;51.280;7.236;2024-03-06T01:35:46;3.20;99.90
871;DHT22;422;51.280;7.236;2024-03-06T01:38:13;3.20;99.90
871;DHT22;422;51.280;7.236;2024-03-06T01:40:44;3.20;99.90
871;DHT22;422;51.280;7.236;2024-03-06T01:43:19;3.10;99.90
871;DHT22;422;51.280;7.236;2024-03-06T01:45:48;3.10;99.90
871;DHT22;422;51.280;7.236;2024-03-06T01:48:16;3.20;99.90
871;DHT22;422;51.280;7.236;2024-03-06T01:50:44;3.10;99.90
871;DHT22;422;51.280;7.236;2024-03-06T01:53:12;3.10;99.90
871;DHT22;422;51.280;7.236;2024-03-06T01:55:40;3.20;99.90
871;DHT22;422;51.280;7.236;2024-03-06T01:58:09;3.20;99.90
871;DHT22;422;51.280;7.236;2024-03-06T02:00:36;3.20;99.90
871;DHT22;422;51.280;7.236;2024-03-06T02:03:04;3.20;99.90
871;DHT22;422;51.280;7.236;2024-03-06T02:05:32;3.20;99.90
871;DHT22;422;51.280;7.236;2024-03-06T02:08:00;3.20;99.90
871;DHT22;422;51.280;7.236;2024-03-06T02:10:28;3.20;99.90
871;DHT22;422;51.280;7.236;2024-03-06T02:12:55;3.20;99.90
871;DHT22;422;51.280;7.236;2024-03-06T02:15:25;3.30;99.90
871;DHT22;422;51.280;7.236;2024-03-06T02:17:52;3.20;99.90
871;DHT22;422;51.280;7.236;2024-03-06T02:20:23;3.20;99.90
871;DHT22;422;51.280;7.236;2024-03-06T02:22:51;3.20;99.90
871;DHT22;422;51.280;7.236;2024-03-06T02:25:18;3.20;99.90
871;DHT22;422;51.280;7.236;2024-03-06T02:27:46;3.20;99.90
871;DHT22;422;51.280;7.236;2024-03-06T02:30:14;3.20;99.90
871;DHT22;422;51.280;7.236;2024-03-06T02:32:42;3.20;99.90
871;DHT22;422;51.280;7.236;2024-03-06T02:35:09;3.20;99.90
871;DHT22;422;51.280;7.236;2024-03-06T02:37:39;3.00;99.90
871;DHT22;422;51.280;7.236;2024-03-06T02:40:08;3.00;99.90
871;DHT22;422;51.280;7.236;2024-03-06T02:42:35;3.10;99.90
871;DHT22;422;51.280;7.236;2024-03-06T02:45:05;3.20;99.90
871;DHT22;422;51.280;7.236;2024-03-06T02:47:32;3.20;99.90
871;DHT22;422;51.280;7.236;2024-03-06T02:50:00;3.10;99.90
871;DHT22;422;51.280;7.236;2024-03-06T02:52:27;3.10;99.90
871;DHT22;422;51.280;7.236;2024-03-06T02:54:56;3.00;99.90
871;DHT22;422;51.280;7.236;2024-03-06T02:57:23;3.00;99.90
871;DHT22;422;51.280;7.236;2024-03-06T02:59:50;3.00;99.90
871;DHT22;422;51.280;7.236;2024-03-06T03:02:17;3.10;99.90
871;DHT22;422;51.280;7.236;2024-03-06T03:04:44;3.10;99.90
871;DHT22;422;51.280;7.236;2024-03-06T03:07:12;3.10;99.90
871;DHT22;422;51.280;7.236;2024-03-06T03:09:39;3.10;99.90
871;DHT22;422;51.280;7.236;2024-03-06T03:12:07;3.10;99.90
871;DHT22;422;51.280;7.236;2024-03-06T03:14:34;3.10;99.90
871;DHT22;422;51.280;7.236;2024-03-06T03:17:01;3.10;99.90
871;DHT22;422;51.280;7.236;2024-03-06T03:19:28;3.00;99.90
871;DHT22;422;51.280;7.236;2024-03-06T03:21:55;3.10;99.90
871;DHT22;422;51.280;7.236;2024-03-06T03:24:23;3.10;99.90
871;DHT22;422;51.280;7.236;2024-03-06T03:26:51;3.00;99.90
871;DHT22;422;51.280;7.236;2024-03-06T03:29:20;3.00;99.90
871;DHT22;422;51.280;7.236;2024-03-06T03:31:47;3.10;99.90
871;DHT22;422;51.280;7.236;2024-03-06T03:34:15;3.10;99.90
871;DHT22;422;51.280;7.236;2024-03-06T03:36:42;3.20;99.90
871;DHT22;422;51.280;7.236;2024-03-06T03:39:10;3.20;99.90
871;DHT22;422;51.280;7.236;2024-03-06T03:41:45;3.20;99.90
871;DHT22;422;51.280;7.236;2024-03-06T03:44:13;3.20;99.90
871;DHT22;422;51.280;7.236;2024-03-06T03:46:42;3.10;99.90
871;DHT22;422;51.280;7.236;2024-03-06T03:49:09;3.10;99.90
871;DHT22;422;51.280;7.236;2024-03-06T03:51:37;3.00;99.90
871;DHT22;422;51.280;7.236;2024-03-06T03:54:04;3.00;99.90
871;DHT22;422;51.280;7.236;2024-03-06T03:56:32;2.90;99.90
871;DHT22;422;51.280;7.236;2024-03-06T03:58:59;2.90;99.90
871;DHT22;422;51.280;7.236;2024-03-06T04:01:26;2.80;99.90
871;DHT22;422;51.280;7.236;2024-03-06T04:03:55;2.80;99.90
871;DHT22;422;51.280;7.236;2024-03-06T04:06:22;2.70;99.90
871;DHT22;422;51.280;7.236;2024-03-06T04:08:50;2.60;99.90
871;DHT22;422;51.280;7.236;2024-03-06T04:11:18;2.60;99.90
871;DHT22;422;51.280;7.236;2024-03-06T04:13:45;2.60;99.90
871;DHT22;422;51.280;7.236;2024-03-06T04:16:16;2.50;99.90
871;DHT22;422;51.280;7.236;2024-03-06T04:18:43;2.60;99.90
871;DHT22;422;51.280;7.236;2024-03-06T04:21:12;2.50;99.90
871;DHT22;422;51.280;7.236;2024-03-06T04:23:40;2.60;99.90
871;DHT22;422;51.280;7.236;2024-03-06T04:26:08;2.60;99.90
871;DHT22;422;51.280;7.236;2024-03-06T04:28:35;2.60;99.90
871;DHT22;422;51.280;7.236;2024-03-06T04:31:02;2.50;99.90
871;DHT22;422;51.280;7.236;2024-03-06T04:33:29;2.40;99.90
871;DHT22;422;51.280;7.236;2024-03-06T04:35:57;2.50;99.90
871;DHT22;422;51.280;7.236;2024-03-06T04:38:25;2.40;99.90
871;DHT22;422;51.280;7.236;2024-03-06T04:40:52;2.40;99.90
871;DHT22;422;51.280;7.236;2024-03-06T04:43:20;2.50;99.90
871;DHT22;422;51.280;7.236;2024-03-06T04:45:47;2.40;99.90
871;DHT22;422;51.280;7.236;2024-03-06T04:48:14;2.30;99.90
871;DHT22;422;51.280;7.236;2024-03-06T04:50:42;2.20;99.90
871;DHT22;422;51.280;7.236;2024-03-06T04:53:10;2.30;99.90
871;DHT22;422;51.280;7.236;2024-03-06T04:55:38;2.20;99.90
871;DHT22;422;51.280;7.236;2024-03-06T04:58:06;2.10;99.90
871;DHT22;422;51.280;7.236;2024-03-06T05:00:33;2.00;99.90
871;DHT22;422;51.280;7.236;2024-03-06T05:03:00;2.00;99.90
871;DHT22;422;51.280;7.236;2024-03-06T05:05:29;2.00;99.90
871;DHT22;422;51.280;7.236;2024-03-06T05:07:56;2.00;99.90
871;DHT22;422;51.280;7.236;2024-03-06T05:10:23;1.90;99.90
871;DHT22;422;51.280;7.236;2024-03-06T05:12:53;1.90;99.90
871;DHT22;422;51.280;7.236;2024-03-06T05:15:20;1.80;99.90
871;DHT22;422;51.280;7.236;2024-03-06T05:17:48;1.80;99.90
871;DHT22;422;51.280;7.236;2024-03-06T05:20:15;1.90;99.90
871;DHT22;422;51.280;7.236;2024-03-06T05:22:43;2.00;99.90
871;DHT22;422;51.280;7.236;2024-03-06T05:25:10;1.90;99.90
871;DHT22;422;51.280;7.236;2024-03-06T05:27:37;2.00;99.90
871;DHT22;422;51.280;7.236;2024-03-06T05:30:07;2.10;99.90
871;DHT22;422;51.280;7.236;2024-03-06T05:32:34;2.20;99.90
871;DHT22;422;51.280;7.236;2024-03-06T05:35:02;2.20;99.90
871;DHT22;422;51.280;7.236;2024-03-06T05:37:29;2.30;99.90
871;DHT22;422;51.280;7.236;2024-03-06T05:39:56;2.30;99.90
871;DHT22;422;51.280;7.236;2024-03-06T05:42:24;2.20;99.90
871;DHT22;422;51.280;7.236;2024-03-06T05:44:51;2.30;99.90
871;DHT22;422;51.280;7.236;2024-03-06T05:47:21;2.20;99.90
871;DHT22;422;51.280;7.236;2024-03-06T05:49:49;2.30;99.90
871;DHT22;422;51.280;7.236;2024-03-06T05:52:16;2.30;99.90
871;DHT22;422;51.280;7.236;2024-03-06T05:54:43;2.30;99.90
871;DHT22;422;51.280;7.236;2024-03-06T05:57:10;2.30;99.90
871;DHT22;422;51.280;7.236;2024-03-06T05:59:38;2.30;99.90
871;DHT22;422;51.280;7.236;2024-03-06T06:02:06;2.40;99.90
871;DHT22;422;51.280;7.236;2024-03-06T06:04:35;2.40;99.90
871;DHT22;422;51.280;7.236;2024-03-06T06:07:02;2.40;99.90
871;DHT22;422;51.280;7.236;2024-03-06T06:09:33;2.50;99.90
871;DHT22;422;51.280;7.236;2024-03-06T06:12:00;2.60;99.90
871;DHT22;422;51.280;7.236;2024-03-06T06:14:28;2.60;99.90
871;DHT22;422;51.280;7.236;2024-03-06T06:16:56;2.60;99.90
871;DHT22;422;51.280;7.236;2024-03-06T06:19:23;2.50;99.90
871;DHT22;422;51.280;7.236;2024-03-06T06:21:54;2.60;99.90
871;DHT22;422;51.280;7.236;2024-03-06T06:24:21;2.60;99.90
871;DHT22;422;51.280;7.236;2024-03-06T06:26:49;2.60;99.90
871;DHT22;422;51.280;7.236;2024-03-06T06:29:16;2.60;99.90
871;DHT22;422;51.280;7.236;2024-03-06T06:31:45;2.60;99.90
871;DHT22;422;51.280;7.236;2024-03-06T06:34:13;2.70;99.90
871;DHT22;422;51.280;7.236;2024-03-06T06:36:45;2.70;99.90
871;DHT22;422;51.280;7.236;2024-03-06T06:39:14;2.80;99.90
871;DHT22;422;51.280;7.236;2024-03-06T06:41:42;2.90;99.90
871;DHT22;422;51.280;7.236;2024-03-06T06:44:10;3.00;99.90
871;DHT22;422;51.280;7.236;2024-03-06T06:46:38;3.10;99.90
871;DHT22;422;51.280;7.236;2024-03-06T06:49:06;3.20;99.90
871;DHT22;422;51.280;7.236;2024-03-06T06:51:33;3.30;99.90
871;DHT22;422;51.280;7.236;2024-03-06T06:54:01;3.40;99.90
871;DHT22;422;51.280;7.236;2024-03-06T06:56:31;3.40;99.90
871;DHT22;422;51.280;7.236;2024-03-06T06:58:58;3.40;99.90
871;DHT22;422;51.280;7.236;2024-03-06T07:01:25;3.50;99.90
871;DHT22;422;51.280;7.236;2024-03-06T07:03:53;3.50;99.90
871;DHT22;422;51.280;7.236;2024-03-06T07:06:20;3.50;99.90
871;DHT22;422;51.280;7.236;2024-03-06T07:08:48;3.60;99.90
871;DHT22;422;51.280;7.236;2024-03-06T07:11:17;3.60;99.90
871;DHT22;422;51.280;7.236;2024-03-06T07:13:46;3.60;99.90
871;DHT22;422;51.280;7.236;2024-03-06T07:16:13;3.60;99.90
871;DHT22;422;51.280;7.236;2024-03-06T07:18:41;3.70;99.90
871;DHT22;422;51.280;7.236;2024-03-06T07:21:08;3.70;99.90
871;DHT22;422;51.280;7.236;2024-03-06T07:23:35;3.80;99.90
871;DHT22;422;51.280;7.236;2024-03-06T07:26:03;3.70;99.90
871;DHT22;422;51.280;7.236;2024-03-06T07:28:33;3.80;99.90
871;DHT22;422;51.280;7.236;2024-03-06T07:31:02;3.90;99.90
871;DHT22;422;51.280;7.236;2024-03-06T07:33:31;3.90;99.90
871;DHT22;422;51.280;7.236;2024-03-06T07:35:59;3.90;99.90
871;DHT22;422;51.280;7.236;2024-03-06T07:38:27;4.00;99.90
871;DHT22;422;51.280;7.236;2024-03-06T07:40:54;4.00;99.90
871;DHT22;422;51.280;7.236;2024-03-06T07:43:21;4.10;99.90
871;DHT22;422;51.280;7.236;2024-03-06T07:45:50;4.20;99.90
871;DHT22;422;51.280;7.236;2024-03-06T07:48:19;4.20;99.90
871;DHT22;422;51.280;7.236;2024-03-06T07:50:47;4.20;99.90
871;DHT22;422;51.280;7.236;2024-03-06T07:53:14;4.30;99.90
871;DHT22;422;51.280;7.236;2024-03-06T07:55:42;4.40;99.90
871;DHT22;422;51.280;7.236;2024-03-06T07:58:09;4.40;99.90
871;DHT22;422;51.280;7.236;2024-03-06T08:00:37;4.50;99.90
871;DHT22;422;51.280;7.236;2024-03-06T08:03:05;4.50;99.90
871;DHT22;422;51.280;7.236;2024-03-06T08:05:37;4.50;99.90
871;DHT22;422;51.280;7.236;2024-03-06T08:08:05;4.50;99.90
871;DHT22;422;51.280;7.236;2024-03-06T08:10:32;4.60;99.90
871;DHT22;422;51.280;7.236;2024-03-06T08:13:00;4.70;99.90
871;DHT22;422;51.280;7.236;2024-03-06T08:15:29;4.60;99.90
871;DHT22;422;51.280;7.236;2024-03-06T08:17:56;4.70;99.90
871;DHT22;422;51.280;7.236;2024-03-06T08:20:22;4.70;99.90
871;DHT22;422;51.280;7.236;2024-03-06T08:22:51;4.80;99.90
871;DHT22;422;51.280;7.236;2024-03-06T08:25:19;4.90;99.90
871;DHT22;422;51.280;7.236;2024-03-06T08:27:46;5.00;99.90
871;DHT22;422;51.280;7.236;2024-03-06T08:30:13;5.20;99.90
871;DHT22;422;51.280;7.236;2024-03-06T08:32:41;5.30;99.90
871;DHT22;422;51.280;7.236;2024-03-06T08:35:10;5.40;99.90
871;DHT22;422;51.280;7.236;2024-03-06T08:37:39;5.50;99.90
871;DHT22;422;51.280;7.236;2024-03-06T08:40:09;5.60;99.90
871;DHT22;422;51.280;7.236;2024-03-06T08:42:40;5.70;99.90
871;DHT22;422;51.280;7.236;2024-03-06T08:45:08;5.70;99.90
871;DHT22;422;51.280;7.236;2024-03-06T08:47:35;5.50;99.90
871;DHT22;422;51.280;7.236;2024-03-06T08:50:03;5.50;99.90
871;DHT22;422;51.280;7.236;2024-03-06T08:52:31;5.60;99.90
871;DHT22;422;51.280;7.236;2024-03-06T08:54:58;5.80;99.90
871;DHT22;422;51.280;7.236;2024-03-06T08:57:26;5.80;99.90
871;DHT22;422;51.280;7.236;2024-03-06T08:59:55;5.60;99.90
871;DHT22;422;51.280;7.236;2024-03-06T09:02:22;5.60;99.90
871;DHT22;422;51.280;7.236;2024-03-06T09:04:51;5.60;99.90
871;DHT22;422;51.280;7.236;2024-03-06T09:07:19;5.70;99.90
871;DHT22;422;51.280;7.236;2024-03-06T09:09:49;5.90;99.90
871;DHT22;422;51.280;7.236;2024-03-06T09:12:17;6.20;99.90
871;DHT22;422;51.280;7.236;2024-03-06T09:14:46;6.40;99.90
871;DHT22;422;51.280;7.236;2024-03-06T09:17:14;6.70;99.90
871;DHT22;422;51.280;7.236;2024-03-06T09:19:42;7.00;99.90
871;DHT22;422;51.280;7.236;2024-03-06T09:22:09;7.20;99.90
871;DHT22;422;51.280;7.236;2024-03-06T09:24:36;7.20;99.90
871;DHT22;422;51.280;7.236;2024-03-06T09:27:07;7.30;99.90
871;DHT22;422;51.280;7.236;2024-03-06T09:29:35;7.70;99.90
871;DHT22;422;51.280;7.236;2024-03-06T09:32:04;7.80;99.90
871;DHT22;422;51.280;7.236;2024-03-06T09:34:32;7.70;99.90
871;DHT22;422;51.280;7.236;2024-03-06T09:36:59;8.10;99.90
871;DHT22;422;51.280;7.236;2024-03-06T09:39:26;8.50;99.90
871;DHT22;422;51.280;7.236;2024-03-06T09:41:54;8.60;99.90
871;DHT22;422;51.280;7.236;2024-03-06T09:44:22;9.20;99.90
871;DHT22;422;51.280;7.236;2024-03-06T09:46:50;9.20;99.90
871;DHT22;422;51.280;7.236;2024-03-06T09:49:19;9.50;99.90
871;DHT22;422;51.280;7.236;2024-03-06T09:51:48;10.00;99.90
871;DHT22;422;51.280;7.236;2024-03-06T09:54:17;10.10;99.90
871;DHT22;422;51.280;7.236;2024-03-06T09:56:44;10.00;99.90
871;DHT22;422;51.280;7.236;2024-03-06T09:59:12;10.20;99.90
871;DHT22;422;51.280;7.236;2024-03-06T10:01:49;10.50;99.90
871;DHT22;422;51.280;7.236;2024-03-06T10:04:22;11.10;99.90
871;DHT22;422;51.280;7.236;2024-03-06T10:06:51;11.30;99.90
871;DHT22;422;51.280;7.236;2024-03-06T10:09:20;11.40;1.00
871;DHT22;422;51.280;7.236;2024-03-06T10:11:48;11.40;99.90
871;DHT22;422;51.280;7.236;2024-03-06T10:14:16;11.70;99.90
871;DHT22;422;51.280;7.236;2024-03-06T10:16:53;11.80;47.40
871;DHT22;422;51.280;7.236;2024-03-06T10:19:24;12.40;31.80
871;DHT22;422;51.280;7.236;2024-03-06T10:21:54;12.60;1.00
871;DHT22;422;51.280;7.236;2024-03-06T10:24:23;12.30;1.00
871;DHT22;422;51.280;7.236;2024-03-06T10:26:52;12.20;1.00
871;DHT22;422;51.280;7.236;2024-03-06T10:29:21;12.70;1.00
871;DHT22;422;51.280;7.236;2024-03-06T10:31:51;13.10;1.00
871;DHT22;422;51.280;7.236;2024-03-06T10:34:20;13.10;1.00
871;DHT22;422;51.280;7.236;2024-03-06T10:36:54;13.40;1.00
871;DHT22;422;51.280;7.236;2024-03-06T10:39:22;13.60;1.00
871;DHT22;422;51.280;7.236;2024-03-06T10:41:52;13.20;1.00
871;DHT22;422;51.280;7.236;2024-03-06T10:44:22;12.70;1.00
871;DHT22;422;51.280;7.236;2024-03-06T10:46:56;12.20;1.00
871;DHT22;422;51.280;7.236;2024-03-06T10:49:26;11.70;1.00
871;DHT22;422;51.280;7.236;2024-03-06T10:51:59;11.40;1.00
871;DHT22;422;51.280;7.236;2024-03-06T10:54:27;11.20;1.00
871;DHT22;422;51.280;7.236;2024-03-06T10:56:56;11.30;1.00
871;DHT22;422;51.280;7.236;2024-03-06T10:59:25;11.90;1.00
871;DHT22;422;51.280;7.236;2024-03-06T11:01:55;12.70;1.00
871;DHT22;422;51.280;7.236;2024-03-06T11:04:26;13.30;1.00
871;DHT22;422;51.280;7.236;2024-03-06T11:07:02;13.90;1.00
871;DHT22;422;51.280;7.236;2024-03-06T11:09:33;14.30;1.00
871;DHT22;422;51.280;7.236;2024-03-06T11:12:02;14.70;1.00
871;DHT22;422;51.280;7.236;2024-03-06T11:14:33;14.90;1.00
871;DHT22;422;51.280;7.236;2024-03-06T11:17:04;15.00;1.00
871;DHT22;422;51.280;7.236;2024-03-06T11:23:07;15.70;1.00
871;DHT22;422;51.280;7.236;2024-03-06T11:26:10;16.00;1.00
871;DHT22;422;51.280;7.236;2024-03-06T11:28:38;16.40;1.00
871;DHT22;422;51.280;7.236;2024-03-06T11:31:09;16.60;1.00
871;DHT22;422;51.280;7.236;2024-03-06T11:33:40;16.60;1.00
871;DHT22;422;51.280;7.236;2024-03-06T11:36:16;16.50;1.00
871;DHT22;422;51.280;7.236;2024-03-06T11:38:47;15.80;1.00
871;DHT22;422;51.280;7.236;2024-03-06T11:41:14;16.00;1.00
871;DHT22;422;51.280;7.236;2024-03-06T11:43:43;15.90;1.00
871;DHT22;422;51.280;7.236;2024-03-06T11:46:11;15.10;1.00
871;DHT22;422;51.280;7.236;2024-03-06T11:48:38;13.80;1.00
871;DHT22;422;51.280;7.236;2024-03-06T11:51:06;13.40;1.00
871;DHT22;422;51.280;7.236;2024-03-06T11:53:34;13.50;1.00
871;DHT22;422;51.280;7.236;2024-03-06T11:56:07;13.90;1.00
871;DHT22;422;51.280;7.236;2024-03-06T11:58:35;13.80;1.00
871;DHT22;422;51.280;7.236;2024-03-06T12:01:04;14.50;1.00
871;DHT22;422;51.280;7.236;2024-03-06T12:03:32;14.90;1.00
871;DHT22;422;51.280;7.236;2024-03-06T12:06:04;14.30;1.00
871;DHT22;422;51.280;7.236;2024-03-06T12:08:31;14.10;1.00
871;DHT22;422;51.280;7.236;2024-03-06T12:11:03;14.00;1.00
871;DHT22;422;51.280;7.236;2024-03-06T12:13:33;14.20;1.00
871;DHT22;422;51.280;7.236;2024-03-06T12:16:05;13.80;1.00
871;DHT22;422;51.280;7.236;2024-03-06T12:18:33;14.00;1.00
871;DHT22;422;51.280;7.236;2024-03-06T12:21:01;14.30;1.00
871;DHT22;422;51.280;7.236;2024-03-06T12:23:30;14.70;1.00
871;DHT22;422;51.280;7.236;2024-03-06T12:26:04;15.10;1.00
871;DHT22;422;51.280;7.236;2024-03-06T12:28:33;15.20;1.00
871;DHT22;422;51.280;7.236;2024-03-06T12:31:02;15.40;1.00
871;DHT22;422;51.280;7.236;2024-03-06T12:33:30;16.00;1.00
871;DHT22;422;51.280;7.236;2024-03-06T12:36:02;16.30;1.00
871;DHT22;422;51.280;7.236;2024-03-06T12:38:31;15.20;1.00
871;DHT22;422;51.280;7.236;2024-03-06T12:40:59;15.10;1.00
871;DHT22;422;51.280;7.236;2024-03-06T12:43:29;14.00;1.00
871;DHT22;422;51.280;7.236;2024-03-06T12:45:58;14.70;1.00
871;DHT22;422;51.280;7.236;2024-03-06T12:48:26;15.10;1.00
871;DHT22;422;51.280;7.236;2024-03-06T12:50:55;15.10;1.00
871;DHT22;422;51.280;7.236;2024-03-06T12:53:30;14.80;1.00
871;DHT22;422;51.280;7.236;2024-03-06T12:55:59;14.50;1.00
871;DHT22;422;51.280;7.236;2024-03-06T12:58:26;14.30;1.00
871;DHT22;422;51.280;7.236;2024-03-06T13:00:54;14.50;1.00
871;DHT22;422;51.280;7.236;2024-03-06T13:03:23;14.60;1.00
871;DHT22;422;51.280;7.236;2024-03-06T13:05:51;14.20;1.00
871;DHT22;422;51.280;7.236;2024-03-06T13:08:19;13.80;1.00
871;DHT22;422;51.280;7.236;2024-03-06T13:10:47;13.50;1.00
871;DHT22;422;51.280;7.236;2024-03-06T13:13:14;13.10;1.00
871;DHT22;422;51.280;7.236;2024-03-06T13:15:42;13.00;1.00
871;DHT22;422;51.280;7.236;2024-03-06T13:18:10;13.30;1.00
871;DHT22;422;51.280;7.236;2024-03-06T13:20:39;13.50;1.00
871;DHT22;422;51.280;7.236;2024-03-06T13:23:06;13.20;1.00
871;DHT22;422;51.280;7.236;2024-03-06T13:25:34;13.10;1.00
871;DHT22;422;51.280;7.236;2024-03-06T13:28:01;13.30;1.00
871;DHT22;422;51.280;7.236;2024-03-06T13:30:29;13.50;1.00
871;DHT22;422;51.280;7.236;2024-03-06T13:32:57;13.60;1.00
871;DHT22;422;51.280;7.236;2024-03-06T13:35:25;13.30;1.00
871;DHT22;422;51.280;7.236;2024-03-06T13:37:53;13.00;1.00
871;DHT22;422;51.280;7.236;2024-03-06T13:40:25;12.80;1.00
871;DHT22;422;51.280;7.236;2024-03-06T13:42:53;12.90;1.00
871;DHT22;422;51.280;7.236;2024-03-06T13:45:20;12.80;1.00
871;DHT22;422;51.280;7.236;2024-03-06T13:47:48;12.90;1.00
871;DHT22;422;51.280;7.236;2024-03-06T13:50:16;12.80;1.00
871;DHT22;422;51.280;7.236;2024-03-06T13:52:43;12.70;1.00
871;DHT22;422;51.280;7.236;2024-03-06T13:55:15;12.70;1.00
871;DHT22;422;51.280;7.236;2024-03-06T13:57:43;12.70;1.00
871;DHT22;422;51.280;7.236;2024-03-06T14:00:11;12.50;1.00
871;DHT22;422;51.280;7.236;2024-03-06T14:02:43;12.40;1.00
871;DHT22;422;51.280;7.236;2024-03-06T14:05:11;12.30;1.00
871;DHT22;422;51.280;7.236;2024-03-06T14:07:40;12.40;1.00
871;DHT22;422;51.280;7.236;2024-03-06T14:10:08;12.40;1.00
871;DHT22;422;51.280;7.236;2024-03-06T14:12:37;12.40;1.00
871;DHT22;422;51.280;7.236;2024-03-06T14:15:06;12.50;1.00
871;DHT22;422;51.280;7.236;2024-03-06T14:17:38;12.60;1.00
871;DHT22;422;51.280;7.236;2024-03-06T14:20:06;12.60;1.00
871;DHT22;422;51.280;7.236;2024-03-06T14:22:33;12.60;1.00
871;DHT22;422;51.280;7.236;2024-03-06T14:25:01;12.70;1.00
871;DHT22;422;51.280;7.236;2024-03-06T14:27:28;12.70;1.00
871;DHT22;422;51.280;7.236;2024-03-06T14:29:58;12.70;1.00
871;DHT22;422;51.280;7.236;2024-03-06T14:32:25;12.70;1.00
871;DHT22;422;51.280;7.236;2024-03-06T14:34:53;12.80;1.00
871;DHT22;422;51.280;7.236;2024-03-06T14:37:23;12.50;1.00
871;DHT22;422;51.280;7.236;2024-03-06T14:39:50;12.60;1.00
871;DHT22;422;51.280;7.236;2024-03-06T14:42:18;12.70;1.00
871;DHT22;422;51.280;7.236;2024-03-06T14:44:46;12.80;1.00
871;DHT22;422;51.280;7.236;2024-03-06T14:47:16;12.80;1.00
871;DHT22;422;51.280;7.236;2024-03-06T14:49:44;12.70;1.00
871;DHT22;422;51.280;7.236;2024-03-06T14:52:11;12.60;1.00
871;DHT22;422;51.280;7.236;2024-03-06T14:54:40;12.60;1.00
871;DHT22;422;51.280;7.236;2024-03-06T14:57:09;12.60;1.00
871;DHT22;422;51.280;7.236;2024-03-06T14:59:37;12.60;1.00
871;DHT22;422;51.280;7.236;2024-03-06T15:02:05;12.60;1.00
871;DHT22;422;51.280;7.236;2024-03-06T15:04:35;12.60;1.00
871;DHT22;422;51.280;7.236;2024-03-06T15:07:03;12.60;1.00
871;DHT22;422;51.280;7.236;2024-03-06T15:09:30;12.50;1.00
871;DHT22;422;51.280;7.236;2024-03-06T15:11:58;12.50;1.00
871;DHT22;422;51.280;7.236;2024-03-06T15:14:29;12.30;1.00
871;DHT22;422;51.280;7.236;2024-03-06T15:16:57;12.40;1.00
871;DHT22;422;51.280;7.236;2024-03-06T15:19:24;12.40;1.00
871;DHT22;422;51.280;7.236;2024-03-06T15:21:53;12.40;1.00
871;DHT22;422;51.280;7.236;2024-03-06T15:24:23;12.30;1.00
871;DHT22;422;51.280;7.236;2024-03-06T15:26:50;12.10;1.00
871;DHT22;422;51.280;7.236;2024-03-06T15:29:18;11.90;1.00
871;DHT22;422;51.280;7.236;2024-03-06T15:31:46;11.60;1.00
871;DHT22;422;51.280;7.236;2024-03-06T15:34:13;11.40;1.00
871;DHT22;422;51.280;7.236;2024-03-06T15:36:41;11.50;1.00
871;DHT22;422;51.280;7.236;2024-03-06T15:39:10;11.30;1.00
871;DHT22;422;51.280;7.236;2024-03-06T15:41:38;11.30;1.00
871;DHT22;422;51.280;7.236;2024-03-06T15:44:05;11.30;1.00
871;DHT22;422;51.280;7.236;2024-03-06T15:46:34;11.40;1.00
871;DHT22;422;51.280;7.236;2024-03-06T15:49:07;11.20;1.00
871;DHT22;422;51.280;7.236;2024-03-06T15:51:45;11.20;1.00
871;DHT22;422;51.280;7.236;2024-03-06T15:54:14;11.20;1.00
871;DHT22;422;51.280;7.236;2024-03-06T15:56:41;11.10;1.00
871;DHT22;422;51.280;7.236;2024-03-06T15:59:09;11.20;1.00
871;DHT22;422;51.280;7.236;2024-03-06T16:01:37;11.10;1.00
871;DHT22;422;51.280;7.236;2024-03-06T16:04:04;11.00;1.00
871;DHT22;422;51.280;7.236;2024-03-06T16:06:32;11.00;1.00
871;DHT22;422;51.280;7.236;2024-03-06T16:09:00;11.00;1.00
871;DHT22;422;51.280;7.236;2024-03-06T16:11:29;11.00;1.00
871;DHT22;422;51.280;7.236;2024-03-06T16:13:57;11.10;1.00
871;DHT22;422;51.280;7.236;2024-03-06T16:16:27;11.00;1.00
871;DHT22;422;51.280;7.236;2024-03-06T16:18:55;10.90;1.00
871;DHT22;422;51.280;7.236;2024-03-06T16:21:24;10.90;1.00
871;DHT22;422;51.280;7.236;2024-03-06T16:23:52;10.80;1.00
871;DHT22;422;51.280;7.236;2024-03-06T16:26:21;10.90;1.00
871;DHT22;422;51.280;7.236;2024-03-06T16:28:50;10.80;1.00
871;DHT22;422;51.280;7.236;2024-03-06T16:31:18;10.70;1.00
871;DHT22;422;51.280;7.236;2024-03-06T16:33:47;10.60;1.00
871;DHT22;422;51.280;7.236;2024-03-06T16:36:15;10.50;1.00
871;DHT22;422;51.280;7.236;2024-03-06T16:38:43;10.50;1.00
871;DHT22;422;51.280;7.236;2024-03-06T16:41:10;10.40;1.00
871;DHT22;422;51.280;7.236;2024-03-06T16:43:41;10.30;1.00
871;DHT22;422;51.280;7.236;2024-03-06T16:46:10;10.30;1.00
871;DHT22;422;51.280;7.236;2024-03-06T16:48:38;10.20;1.00
871;DHT22;422;51.280;7.236;2024-03-06T16:51:05;10.10;1.00
871;DHT22;422;51.280;7.236;2024-03-06T16:53:34;10.10;1.00
871;DHT22;422;51.280;7.236;2024-03-06T16:56:02;10.00;1.00
871;DHT22;422;51.280;7.236;2024-03-06T16:58:30;9.90;1.00
871;DHT22;422;51.280;7.236;2024-03-06T17:00:58;9.80;1.00
871;DHT22;422;51.280;7.236;2024-03-06T17:03:27;9.70;1.00